首页
METAR-TAF:

METAR-TAF

机场 :

纽卡斯尔机场

泰恩河畔纽卡斯尔, 英格兰

纬度: 55-02N, 经度: 001-42W, 海拔: 81米

当前天气观测

该预报发布于1小时和8分钟前的05:50 UTC
风速11节,风向西北
温度 7°C
湿度 87%
气压 1008 hPa
能见度10公里或以上
多云层高于2000英尺

METAR: EGNT 200550Z 32011KT 9999 BKN020 07/05 Q1008

时间: 07:58 (06:58 UTC)

预报

该预报发布于2小时和3分钟前的04:55 UTC
预报有效从20日的 06点(UTC)到 21日的 06点(UTC)
风速12节,风向西北
能见度10公里或以上
少量云层高于2000英尺
短暂存在
从 20日的 06点(UTC)到 20日的 10点(UTC)
风速15节,风向西北,有时为25节阵风
几率 40% :
短暂存在
从 20日的 06点(UTC)到 20日的 21点(UTC)
能見度: 6000
多云层高于1000英尺
阵雨
几率 30% :
短暂存在
从 20日的 06点(UTC)到 20日的 15点(UTC)
多云层高于700英尺
成为
从 20日的 10点(UTC)到 20日的 13点(UTC)
风速13节,风向北转东北
短暂存在
从 20日的 10点(UTC)到 20日的 21点(UTC)
风速18节,风向,有时为28节阵风
成为
从 20日的 21点(UTC)到 20日的 24点(UTC)
风速8节,风向西北
几率 30% :
短暂存在
从 20日的 21点(UTC)到 21日的 06点(UTC)
能見度: 9000
多云层高于1000英尺

TAF: EGNT 200455Z 2006/2106 31012KT 9999 FEW020 TEMPO 2006/2010 32015G25KT PROB40 TEMPO 2006/2021 6000 SHRA BKN010 PROB30 TEMPO 2006/2015 BKN007 BECMG 2010/2013 02013KT TEMPO 2010/2021 01018G28KT BECMG 2021/2024 31008KT PROB30 TEMPO 2021/2106 9000 BKN010

超过4000个机场的气象观测和天气预报(METAR&TAF报告)。

可查询的气象台以黄色和红色小点在地图上表示。

将鼠标移到小点上方,可查看气象台名称。

然后点击查看天气观测和预报。

如需切换地图:点击带黑十字的绿色按钮放大地图;点击带横线的绿色按钮缩小地图;或者点击绿色箭头查看邻近地区的地图。


METAR-TAF: